Latest Weather Observations for Loxton

IDS60801

Issued at 2:05 pm CDT Friday 28 November 2014 (issued every 30 minutes, with the page automatically refreshed every 10 minutes)

About weather observations | Map of weather stations | Latest weather observations for SA | Other Formats
Station Details ID: 024024 Name: LOXTON RESEARCH CENTRE Lat: -34.44 Lon: 140.60 Height: 30.1 m
Data from the previous 72 hours. | See also: Recent months at Loxton
Date/Time
CDT
Temp
°C
App
Temp
°C
Dew
Point
Rel
Hum
%
Delta-T
°C
Wind Press
QNH
hPa
Press
MSL
hPa
Rain
since 9 am
mm
Dir
 
Spd
km/h
Gust
km/h
Spd
kts
Gust
kts
28/02:00pm 30.4 25.4 -7.9 8 16.0 S 11 15 6 8 1016.2 1016.1 0.0
28/01:30pm 29.7 25.2 -6.6 9 15.4 S 9 19 5 10 1016.7 1016.6 0.0
28/01:00pm 29.3 25.2 -6.7 9 15.2 NNE 7 13 4 7 1017.4 1017.3 0.0
28/12:30pm 28.8 24.6 -7.3 9 15.0 ESE 7 13 4 7 1018.0 1017.9 0.0
28/12:00pm 28.2 23.8 -6.2 10 14.5 N 9 20 5 11 1018.6 1018.5 0.0
28/11:30am 27.8 23.6 -3.5 12 13.8 SE 9 15 5 8 1019.0 1018.9 0.0
28/11:00am 26.7 23.5 0.9 18 12.2 NNW 7 11 4 6 1019.1 1019.0 0.0
28/10:30am 25.0 22.1 2.6 23 10.8 SE 7 13 4 7 1019.5 1019.4 0.0
28/10:00am 23.2 20.6 3.3 27 9.6 E 6 13 3 7 1019.8 1019.7 0.0
28/09:30am 21.6 18.7 2.7 28 8.9 ESE 7 13 4 7 1020.2 1020.1 0.0
28/09:00am 20.4 17.2 2.9 31 8.2 ENE 9 15 5 8 1020.4 1020.3 0.0
28/08:30am 19.0 15.0 2.8 34 7.5 ESE 13 19 7 10 1020.3 1020.2 0.0
28/08:00am 16.9 12.7 3.7 41 6.1 ESE 15 20 8 11 1020.2 1020.1 0.0
28/07:30am 14.9 11.6 4.6 50 4.8 SE 11 13 6 7 1020.1 1020.0 0.0
28/07:00am 12.9 10.3 6.1 63 3.2 SSE 9 11 5 6 1020.0 1019.9 0.0
28/06:30am 11.1 9.1 7.1 76 1.9 SSE 7 9 4 5 1019.8 1019.7 0.0
28/06:00am 10.2 8.2 7.2 82 1.4 SSE 7 11 4 6 1019.6 1019.5 0.0
28/05:30am 10.5 8.3 8.0 84 1.2 S 9 13 5 7 1019.2 1019.1 0.0
28/05:00am 10.8 8.8 8.6 86 1.1 SSE 9 11 5 6 1019.0 1018.9 0.0
28/04:30am 11.1 9.5 8.9 86 1.1 S 7 11 4 6 1018.7 1018.6 0.0
28/04:00am 11.7 9.4 9.1 84 1.3 SSW 11 15 6 8 1018.7 1018.6 0.0
28/03:30am 11.9 10.4 9.3 84 1.3 SSW 7 11 4 6 1018.6 1018.5 0.0
28/03:00am 12.3 10.4 9.1 81 1.6 SSW 9 13 5 7 1018.6 1018.5 0.0
28/02:30am 12.8 11.2 8.8 76 2.0 SSW 7 11 4 6 1018.7 1018.6 0.0
28/02:00am 13.3 10.9 8.7 73 2.3 SSW 11 13 6 7 1018.9 1018.8 0.0
28/01:30am 14.1 12.1 8.5 69 2.8 SSW 9 15 5 8 1019.1 1019.0 0.0
28/01:00am 14.8 12.3 8.4 65 3.2 SW 11 17 6 9 1019.4 1019.3 0.0
28/12:30am 15.8 12.9 8.0 60 3.9 SSW 13 17 7 9 1019.5 1019.4 0.0
28/12:00am 16.9 13.2 7.8 55 4.6 SSW 17 24 9 13 1019.8 1019.7 0.0
 
Date/Time
CDT
Temp
°C
App
Temp
°C
Dew
Point
Rel
Hum
%
Delta-T
°C
Wind Press
QNH
hPa
Press
MSL
hPa
Rain
since 9 am
mm
Dir
 
Spd
km/h
Gust
km/h
Spd
kts
Gust
kts
27/11:30pm 17.7 14.1 6.8 49 5.4 SSW 15 22 8 12 1020.1 1020.0 0.0
27/11:00pm 18.8 14.4 6.5 44 6.1 SSW 19 26 10 14 1020.0 1019.9 0.0
27/10:30pm 19.6 14.7 5.3 39 7.0 SSW 20 26 11 14 1020.2 1020.1 0.0
27/10:00pm 20.2 15.4 0.1 26 8.9 SSW 15 26 8 14 1020.2 1020.1 0.0
27/09:30pm 19.1 15.3 2.0 32 7.8 SSW 11 13 6 7 1020.0 1019.9 0.0
27/09:00pm 19.2 16.3 4.6 38 7.0 SSW 9 11 5 6 1019.9 1019.8 0.0
27/08:30pm 20.3 18.1 6.3 40 7.0 SSW 7 9 4 5 1019.7 1019.6 0.0
27/08:00pm 24.1 20.1 0.4 21 10.9 S 11 13 6 7 1019.5 1019.4 0.0
27/07:30pm 26.1 21.9 -0.9 17 12.3 S 11 19 6 10 1019.2 1019.1 0.0
27/07:00pm 27.2 21.9 -3.2 13 13.4 SSE 15 22 8 12 1018.9 1018.8 0.0
27/06:30pm 27.6 22.2 -4.6 12 13.9 S 15 20 8 11 1018.8 1018.7 0.0
27/06:00pm 27.7 21.3 -4.9 11 14.0 SSE 20 30 11 16 1018.7 1018.6 0.0
27/05:30pm 28.2 23.0 -2.4 13 13.8 S 15 19 8 10 1018.7 1018.6 0.0
27/05:00pm 28.3 22.5 -1.6 14 13.7 SSE 19 30 10 16 1018.8 1018.7 0.0
27/04:30pm 28.2 23.7 -0.1 16 13.3 S 13 26 7 14 1019.1 1019.0 0.0
27/04:00pm 28.7 24.0 0.7 16 13.4 S 15 24 8 13 1019.3 1019.2 0.0
27/03:30pm 28.2 22.8 2.3 19 12.7 SE 20 30 11 16 1019.5 1019.4 0.0
27/03:00pm 27.8 23.6 3.6 21 12.1 SE 15 22 8 12 1019.8 1019.7 0.0
27/02:30pm 27.4 23.0 4.5 23 11.6 S 17 26 9 14 1020.3 1020.2 0.0
27/02:00pm 27.5 22.9 5.4 24 11.4 SSE 19 30 10 16 1020.6 1020.5 0.0
27/01:30pm 26.1 22.3 5.9 27 10.4 S 15 28 8 15 1021.0 1020.9 0.0
27/01:00pm 25.4 20.9 5.9 28 10.0 SSE 19 30 10 16 1021.6 1021.5 0.0
27/12:30pm 24.6 20.8 7.4 33 9.0 SSE 17 35 9 19 1022.0 1021.9 0.0
27/12:00pm 23.8 20.6 8.3 37 8.2 SSE 15 20 8 11 1022.4 1022.3 0.0
27/11:30am 23.2 20.1 9.0 40 7.6 S 15 24 8 13 1022.9 1022.8 0.0
27/11:00am 22.3 19.7 9.2 43 7.0 SSE 13 20 7 11 1023.3 1023.2 0.0
27/10:30am 21.5 18.5 9.3 45 6.5 ESE 15 22 8 12 1023.5 1023.4 0.0
27/10:00am 20.7 17.4 9.4 48 6.0 SE 17 20 9 11 1023.8 1023.7 0.0
27/09:30am 19.7 16.3 9.3 51 5.5 ESE 17 24 9 13 1024.0 1023.9 0.0
27/09:00am 18.6 15.3 9.5 55 4.8 ESE 17 20 9 11 1024.3 1024.2 0.0
27/08:30am 17.4 14.0 9.3 59 4.2 ESE 17 26 9 14 1024.3 1024.2 0.0
27/08:00am 16.4 12.7 9.4 63 3.6 SE 19 24 10 13 1024.3 1024.2 0.0
27/07:30am 15.4 12.1 9.4 67 3.1 SE 17 24 9 13 1024.0 1023.9 0.0
27/07:00am 14.3 11.1 9.8 74 2.3 SSE 17 22 9 12 1023.5 1023.4 0.0
27/06:30am 13.0 10.7 10.3 84 1.4 SSE 13 17 7 9 1023.2 1023.1 0.0
27/06:00am 12.4 10.4 10.1 86 1.2 SSE 11 15 6 8 1023.2 1023.1 0.0
27/05:30am 12.7 10.7 10.2 85 1.3 SSE 11 15 6 8 1022.8 1022.7 0.0
27/05:00am 13.1 11.1 10.2 82 1.5 S 11 15 6 8 1022.4 1022.3 0.0
27/04:30am 13.6 11.2 10.1 79 1.8 SSE 13 17 7 9 1022.2 1022.1 0.0
27/04:00am 14.1 11.7 10.2 77 2.0 S 13 19 7 10 1022.0 1021.9 0.0
27/03:30am 14.5 11.7 10.1 75 2.3 S 15 19 8 10 1022.0 1021.9 0.0
27/03:00am 14.9 12.5 10.1 73 2.5 S 13 17 7 9 1022.1 1022.0 0.0
27/02:30am 15.4 12.5 9.8 69 2.9 S 15 19 8 10 1022.0 1021.9 0.0
27/02:00am 15.6 13.1 9.6 67 3.1 S 13 19 7 10 1022.0 1021.9 0.0
27/01:30am 16.1 13.5 9.3 64 3.5 S 13 19 7 10 1022.0 1021.9 0.0
27/01:00am 16.6 13.5 9.0 61 3.9 S 15 20 8 11 1022.0 1021.9 0.0
27/12:30am 17.0 14.0 9.1 59 4.1 S 15 20 8 11 1022.0 1021.9 0.0
27/12:00am 17.5 14.0 8.8 56 4.5 S 17 20 9 11 1022.0 1021.9 0.0
 
Date/Time
CDT
Temp
°C
App
Temp
°C
Dew
Point
Rel
Hum
%
Delta-T
°C
Wind Press
QNH
hPa
Press
MSL
hPa
Rain
since 9 am
mm
Dir
 
Spd
km/h
Gust
km/h
Spd
kts
Gust
kts
26/11:30pm 17.5 14.6 8.0 53 4.8 S 13 20 7 11 1022.1 1022.0 0.0
26/11:00pm 17.7 14.9 7.1 50 5.3 SSW 11 17 6 9 1022.0 1021.9 0.0
26/10:30pm 18.1 15.6 6.6 47 5.7 S 9 15 5 8 1021.9 1021.8 0.0
26/10:00pm 18.9 15.9 5.9 42 6.4 SSW 11 15 6 8 1021.8 1021.7 0.0
26/09:30pm 19.4 16.4 5.8 41 6.7 SSW 11 13 6 7 1021.5 1021.4 0.0
26/09:00pm 20.5 17.8 5.5 37 7.4 S 9 15 5 8 1021.1 1021.0 0.0
26/08:30pm 21.5 17.9 5.0 34 8.1 S 13 19 7 10 1020.8 1020.7 0.0
26/08:00pm 22.5 18.3 5.5 33 8.5 SSW 17 24 9 13 1020.5 1020.4 0.0
26/07:30pm 23.5 18.9 5.4 31 9.1 S 19 26 10 14 1020.3 1020.2 0.0
26/07:00pm 24.5 19.4 4.0 26 10.1 S 20 32 11 17 1020.0 1019.9 0.0
26/06:30pm 25.1 20.1 3.5 24 10.6 S 19 26 10 14 1019.8 1019.7 0.0
26/06:00pm 25.3 20.4 3.9 25 10.6 S 19 30 10 16 1019.6 1019.5 0.0
26/05:30pm 25.6 20.9 3.1 23 11.0 SSW 17 30 9 16 1019.5 1019.4 0.0
26/05:00pm 25.2 19.0 1.9 22 11.1 SSW 24 33 13 18 1019.6 1019.5 0.0
26/04:30pm 25.4 19.6 2.3 22 11.1 SSW 22 30 12 16 1019.6 1019.5 0.0
26/04:00pm 25.5 21.6 3.6 24 10.8 SSW 13 26 7 14 1020.0 1019.9 0.0
26/03:30pm 24.6 19.8 2.5 23 10.6 SSW 17 28 9 15 1020.2 1020.1 0.0
26/03:00pm 24.4 19.3 3.2 25 10.3 SSW 19 26 10 14 1020.5 1020.4 0.0
26/02:30pm 24.0 18.6 2.7 25 10.2 SSW 20 28 11 15 1020.9 1020.8 0.0
26/02:00pm 24.0 18.8 2.7 25 10.2 SSW 19 28 10 15 1021.5 1021.4 0.0
26/01:30pm 23.2 18.7 2.2 25 9.9 SSW 15 24 8 13 1022.0 1021.9 0.0
26/01:00pm 22.0 17.2 2.7 28 9.1 SSW 17 28 9 15 1022.3 1022.2 0.0
26/12:30pm 21.1 17.0 4.1 32 8.2 S 15 22 8 12 1022.6 1022.5 0.0
26/12:00pm 21.0 16.5 4.2 33 8.1 SSW 17 26 9 14 1023.0 1022.9 0.0
26/11:30am 20.9 16.5 4.6 34 7.9 S 17 24 9 13 1023.2 1023.1 0.0
26/11:00am 19.5 15.8 4.5 37 7.2 S 13 20 7 11 1023.5 1023.4 0.0
26/10:30am 18.2 13.7 4.2 39 6.6 S 17 26 9 14 1023.8 1023.7 0.0
26/10:00am 17.9 13.8 4.6 41 6.3 SSE 15 22 8 12 1023.8 1023.7 0.0
26/09:30am 16.5 12.0 4.3 44 5.7 S 17 24 9 13 1023.9 1023.8 0.0
26/09:00am 16.5 12.1 4.9 46 5.5 SSE 17 22 9 12 1023.8 1023.7 0.0
26/08:30am 16.3 12.5 5.7 49 5.1 SE 15 20 8 11 1023.8 1023.7 0.0
26/08:00am 14.9 11.1 5.9 55 4.3 SE 15 19 8 10 1023.5 1023.4 0.0
26/07:30am 13.6 9.8 6.0 60 3.6 SSE 15 26 8 14 1023.1 1023.0 0.0
26/07:00am 11.7 8.3 6.1 68 2.6 S 13 20 7 11 1022.8 1022.7 0.0
26/06:30am 10.4 7.8 6.3 76 1.9 S 9 13 5 7 1022.4 1022.3 0.0
26/06:00am 9.3 7.1 6.3 81 1.4 SSW 7 9 4 5 1022.4 1022.3 0.0
26/05:30am 9.0 6.8 6.2 82 1.3 SSW 7 11 4 6 1022.0 1021.9 0.0
26/05:00am 8.4 6.3 6.0 85 1.1 S 6 6 3 3 1021.8 1021.7 0.0
26/04:30am 9.7 7.6 6.7 81 1.4 SSE 7 9 4 5 1021.6 1021.5 0.0
26/04:00am 10.3 8.1 6.4 77 1.8 S 7 11 4 6 1021.5 1021.4 0.0
26/03:30am 10.5 8.3 6.2 75 2.0 S 7 9 4 5 1021.4 1021.3 0.0
26/03:00am 11.1 8.9 6.4 73 2.2 S 7 11 4 6 1021.5 1021.4 0.0
26/02:30am 11.6 9.4 6.3 70 2.5 S 7 11 4 6 1021.5 1021.4 0.0
26/02:00am 12.3 9.7 6.1 66 2.9 S 9 15 5 8 1021.5 1021.4 0.0
26/01:30am 12.9 9.9 5.9 62 3.3 S 11 15 6 8 1021.8 1021.7 0.0
26/01:00am 13.6 10.1 5.5 58 3.8 S 13 17 7 9 1022.0 1021.9 0.0
26/12:30am 14.1 11.0 5.4 56 4.1 S 11 17 6 9 1022.0 1021.9 0.0
26/12:00am 14.8 10.9 5.2 52 4.5 S 15 19 8 10 1022.2 1022.1 0.0
 
Date/Time
CDT
Temp
°C
App
Temp
°C
Dew
Point
Rel
Hum
%
Delta-T
°C
Wind Press
QNH
hPa
Press
MSL
hPa
Rain
since 9 am
mm
Dir
 
Spd
km/h
Gust
km/h
Spd
kts
Gust
kts
25/11:30pm 15.4 11.8 5.2 50 4.8 S 13 19 7 10 1022.1 1022.0 0.0
25/11:00pm 16.2 11.8 5.0 47 5.3 S 17 24 9 13 1022.0 1021.9 0.0
25/10:30pm 16.7 12.7 4.9 45 5.6 S 15 22 8 12 1022.1 1022.0 0.0
25/10:00pm 17.6 12.7 4.2 41 6.3 S 19 32 10 17 1021.9 1021.8 0.0
25/09:30pm 18.1 14.4 4.4 40 6.5 S 13 19 7 10 1021.6 1021.5 0.0
25/09:00pm 18.9 15.5 3.9 37 7.1 S 11 17 6 9 1021.2 1021.1 0.0
25/08:30pm 19.7 15.8 3.6 34 7.6 S 13 17 7 9 1020.9 1020.8 0.0
25/08:00pm 20.7 16.4 3.1 31 8.3 S 15 20 8 11 1020.6 1020.5 0.0
25/07:30pm 21.8 16.7 3.1 29 8.9 S 19 28 10 15 1020.3 1020.2 0.0
25/07:00pm 22.9 17.7 2.7 26 9.6 SSW 19 28 10 15 1019.9 1019.8 0.0
25/06:30pm 23.6 18.1 1.6 23 10.3 S 20 28 11 15 1019.5 1019.4 0.0
25/06:00pm 23.9 18.5 2.2 24 10.3 SSW 20 32 11 17 1019.4 1019.3 0.0
25/05:30pm 24.4 19.6 2.5 24 10.5 SW 17 28 9 15 1019.3 1019.2 0.0
25/05:00pm 23.8 19.7 2.4 24 10.2 SSW 13 19 7 10 1019.4 1019.3 0.0
25/04:30pm 24.4 19.1 2.1 23 10.6 SW 19 30 10 16 1019.7 1019.6 0.0
25/04:00pm 24.2 21.0 2.8 24 10.3 WSW 9 20 5 11 1019.8 1019.7 0.0
25/03:30pm 24.0 20.2 1.7 23 10.5 SW 11 24 6 13 1020.2 1020.1 0.0
25/03:00pm 23.1 18.2 2.1 25 9.9 SW 17 26 9 14 1020.5 1020.4 0.0
25/02:30pm 22.5 18.0 2.3 26 9.5 S 15 20 8 11 1020.6 1020.5 0.0

Other Formats:

Comma delimited format used in spreadsheet applications
http://www.bom.gov.au/fwo/IDS60801/IDS60801.94682.axf

JavaScript Object Notation format (JSON) in row-major order
http://www.bom.gov.au/fwo/IDS60801/IDS60801.94682.json